sensor_id;sensor_type;location;lat;lon;timestamp;P1;durP1;ratioP1;P2;durP2;ratioP2
15454;SDS011;21057;51.024;7.540;2023-01-05T00:00:59;24.80;;;22.50;;
15454;SDS011;21057;51.024;7.540;2023-01-05T00:03:27;25.07;;;22.90;;
15454;SDS011;21057;51.024;7.540;2023-01-05T00:05:57;25.27;;;23.07;;
15454;SDS011;21057;51.024;7.540;2023-01-05T00:08:24;24.90;;;23.10;;
15454;SDS011;21057;51.024;7.540;2023-01-05T00:10:51;25.17;;;22.97;;
15454;SDS011;21057;51.024;7.540;2023-01-05T00:13:37;25.00;;;23.40;;
15454;SDS011;21057;51.024;7.540;2023-01-05T00:16:21;25.60;;;23.43;;
15454;SDS011;21057;51.024;7.540;2023-01-05T00:19:07;27.13;;;24.67;;
15454;SDS011;21057;51.024;7.540;2023-01-05T00:22:09;24.70;;;23.00;;
15454;SDS011;21057;51.024;7.540;2023-01-05T00:24:55;25.17;;;23.27;;
15454;SDS011;21057;51.024;7.540;2023-01-05T00:27:22;25.70;;;23.57;;
15454;SDS011;21057;51.024;7.540;2023-01-05T00:29:50;25.57;;;23.40;;
15454;SDS011;21057;51.024;7.540;2023-01-05T00:32:17;25.03;;;23.13;;
15454;SDS011;21057;51.024;7.540;2023-01-05T00:34:44;24.73;;;22.90;;
15454;SDS011;21057;51.024;7.540;2023-01-05T00:37:11;23.90;;;22.07;;
15454;SDS011;21057;51.024;7.540;2023-01-05T00:39:38;24.93;;;22.97;;
15454;SDS011;21057;51.024;7.540;2023-01-05T00:42:05;24.63;;;22.77;;
15454;SDS011;21057;51.024;7.540;2023-01-05T00:44:32;25.17;;;23.00;;
15454;SDS011;21057;51.024;7.540;2023-01-05T00:47:00;24.70;;;22.70;;
15454;SDS011;21057;51.024;7.540;2023-01-05T00:49:26;26.10;;;23.47;;
15454;SDS011;21057;51.024;7.540;2023-01-05T00:51:53;26.17;;;23.83;;
15454;SDS011;21057;51.024;7.540;2023-01-05T00:54:20;26.07;;;24.00;;
15454;SDS011;21057;51.024;7.540;2023-01-05T00:56:47;26.83;;;24.50;;
15454;SDS011;21057;51.024;7.540;2023-01-05T00:59:14;25.87;;;24.00;;
15454;SDS011;21057;51.024;7.540;2023-01-05T01:01:43;26.40;;;24.23;;
15454;SDS011;21057;51.024;7.540;2023-01-05T01:04:12;25.90;;;24.10;;
15454;SDS011;21057;51.024;7.540;2023-01-05T01:06:39;26.23;;;23.90;;
15454;SDS011;21057;51.024;7.540;2023-01-05T01:09:06;26.50;;;24.53;;
15454;SDS011;21057;51.024;7.540;2023-01-05T01:11:33;28.27;;;25.53;;
15454;SDS011;21057;51.024;7.540;2023-01-05T01:14:00;26.87;;;24.70;;
15454;SDS011;21057;51.024;7.540;2023-01-05T01:16:27;28.70;;;26.57;;
15454;SDS011;21057;51.024;7.540;2023-01-05T01:18:55;26.10;;;23.73;;
15454;SDS011;21057;51.024;7.540;2023-01-05T01:21:23;25.97;;;24.03;;
15454;SDS011;21057;51.024;7.540;2023-01-05T01:23:50;26.73;;;24.50;;
15454;SDS011;21057;51.024;7.540;2023-01-05T01:26:17;26.70;;;24.63;;
15454;SDS011;21057;51.024;7.540;2023-01-05T01:28:45;27.53;;;25.07;;
15454;SDS011;21057;51.024;7.540;2023-01-05T01:31:12;27.30;;;24.77;;
15454;SDS011;21057;51.024;7.540;2023-01-05T01:33:40;27.27;;;25.13;;
15454;SDS011;21057;51.024;7.540;2023-01-05T01:36:07;27.77;;;25.00;;
15454;SDS011;21057;51.024;7.540;2023-01-05T01:38:36;27.43;;;25.37;;
15454;SDS011;21057;51.024;7.540;2023-01-05T01:41:03;28.00;;;25.60;;
15454;SDS011;21057;51.024;7.540;2023-01-05T01:43:40;26.47;;;24.60;;
15454;SDS011;21057;51.024;7.540;2023-01-05T01:46:12;28.17;;;25.80;;
15454;SDS011;21057;51.024;7.540;2023-01-05T01:48:40;26.57;;;24.27;;
15454;SDS011;21057;51.024;7.540;2023-01-05T01:51:10;27.30;;;25.07;;
15454;SDS011;21057;51.024;7.540;2023-01-05T01:53:43;27.30;;;25.03;;
15454;SDS011;21057;51.024;7.540;2023-01-05T01:56:12;26.27;;;24.30;;
15454;SDS011;21057;51.024;7.540;2023-01-05T01:58:43;27.93;;;25.53;;
15454;SDS011;21057;51.024;7.540;2023-01-05T02:01:10;26.33;;;24.27;;
15454;SDS011;21057;51.024;7.540;2023-01-05T02:03:37;26.53;;;24.10;;
15454;SDS011;21057;51.024;7.540;2023-01-05T02:06:05;28.37;;;25.50;;
15454;SDS011;21057;51.024;7.540;2023-01-05T02:08:32;31.47;;;24.73;;
15454;SDS011;21057;51.024;7.540;2023-01-05T02:11:04;27.00;;;24.73;;
15454;SDS011;21057;51.024;7.540;2023-01-05T02:13:56;27.53;;;25.13;;
15454;SDS011;21057;51.024;7.540;2023-01-05T02:16:33;26.33;;;24.43;;
15454;SDS011;21057;51.024;7.540;2023-01-05T02:19:11;26.77;;;24.50;;
15454;SDS011;21057;51.024;7.540;2023-01-05T02:22:05;27.07;;;24.93;;
15454;SDS011;21057;51.024;7.540;2023-01-05T02:24:57;27.87;;;25.53;;
15454;SDS011;21057;51.024;7.540;2023-01-05T02:27:48;27.93;;;25.87;;
15454;SDS011;21057;51.024;7.540;2023-01-05T02:30:41;28.57;;;25.83;;
15454;SDS011;21057;51.024;7.540;2023-01-05T02:33:24;26.90;;;24.73;;
15454;SDS011;21057;51.024;7.540;2023-01-05T02:35:57;25.50;;;23.60;;
15454;SDS011;21057;51.024;7.540;2023-01-05T02:38:32;26.63;;;24.10;;
15454;SDS011;21057;51.024;7.540;2023-01-05T02:41:05;26.10;;;23.90;;
15454;SDS011;21057;51.024;7.540;2023-01-05T02:43:38;26.40;;;24.13;;
15454;SDS011;21057;51.024;7.540;2023-01-05T02:46:06;26.57;;;24.57;;
15454;SDS011;21057;51.024;7.540;2023-01-05T02:48:33;25.80;;;23.67;;
15454;SDS011;21057;51.024;7.540;2023-01-05T02:51:00;26.97;;;24.20;;
15454;SDS011;21057;51.024;7.540;2023-01-05T02:53:31;31.70;;;23.83;;
15454;SDS011;21057;51.024;7.540;2023-01-05T02:56:01;26.60;;;24.13;;
15454;SDS011;21057;51.024;7.540;2023-01-05T02:58:32;24.80;;;23.03;;
15454;SDS011;21057;51.024;7.540;2023-01-05T03:01:04;26.27;;;23.97;;
15454;SDS011;21057;51.024;7.540;2023-01-05T03:03:36;23.90;;;22.40;;
15454;SDS011;21057;51.024;7.540;2023-01-05T03:06:07;26.73;;;24.27;;
15454;SDS011;21057;51.024;7.540;2023-01-05T03:08:38;25.73;;;23.87;;
15454;SDS011;21057;51.024;7.540;2023-01-05T03:11:12;25.27;;;23.03;;
15454;SDS011;21057;51.024;7.540;2023-01-05T03:13:58;26.70;;;24.63;;
15454;SDS011;21057;51.024;7.540;2023-01-05T03:16:34;26.67;;;24.67;;
15454;SDS011;21057;51.024;7.540;2023-01-05T03:19:03;26.90;;;24.40;;
15454;SDS011;21057;51.024;7.540;2023-01-05T03:21:51;26.93;;;25.03;;
15454;SDS011;21057;51.024;7.540;2023-01-05T03:24:37;26.83;;;24.50;;
15454;SDS011;21057;51.024;7.540;2023-01-05T03:27:24;26.20;;;23.93;;
15454;SDS011;21057;51.024;7.540;2023-01-05T03:30:09;26.70;;;24.37;;
15454;SDS011;21057;51.024;7.540;2023-01-05T03:32:59;28.10;;;25.17;;
15454;SDS011;21057;51.024;7.540;2023-01-05T03:35:50;24.20;;;22.70;;
15454;SDS011;21057;51.024;7.540;2023-01-05T03:38:22;26.90;;;24.80;;
15454;SDS011;21057;51.024;7.540;2023-01-05T03:40:54;26.90;;;24.90;;
15454;SDS011;21057;51.024;7.540;2023-01-05T03:43:24;26.40;;;24.80;;
15454;SDS011;21057;51.024;7.540;2023-01-05T03:45:52;29.73;;;26.53;;
15454;SDS011;21057;51.024;7.540;2023-01-05T03:48:23;26.67;;;24.37;;
15454;SDS011;21057;51.024;7.540;2023-01-05T03:50:51;27.87;;;25.40;;
15454;SDS011;21057;51.024;7.540;2023-01-05T03:53:18;27.33;;;25.20;;
15454;SDS011;21057;51.024;7.540;2023-01-05T03:55:45;27.30;;;25.33;;
15454;SDS011;21057;51.024;7.540;2023-01-05T03:58:12;24.53;;;22.83;;
15454;SDS011;21057;51.024;7.540;2023-01-05T04:00:39;27.93;;;25.53;;
15454;SDS011;21057;51.024;7.540;2023-01-05T04:03:05;27.53;;;24.57;;
15454;SDS011;21057;51.024;7.540;2023-01-05T04:05:34;27.50;;;25.43;;
15454;SDS011;21057;51.024;7.540;2023-01-05T04:08:01;26.97;;;25.07;;
15454;SDS011;21057;51.024;7.540;2023-01-05T04:10:28;27.80;;;25.73;;
15454;SDS011;21057;51.024;7.540;2023-01-05T04:12:54;28.67;;;26.30;;
15454;SDS011;21057;51.024;7.540;2023-01-05T04:15:21;29.43;;;26.40;;
15454;SDS011;21057;51.024;7.540;2023-01-05T04:17:48;30.17;;;27.47;;
15454;SDS011;21057;51.024;7.540;2023-01-05T04:20:15;30.63;;;27.93;;
15454;SDS011;21057;51.024;7.540;2023-01-05T04:22:43;29.33;;;27.13;;
15454;SDS011;21057;51.024;7.540;2023-01-05T04:25:10;31.40;;;28.80;;
15454;SDS011;21057;51.024;7.540;2023-01-05T04:27:37;30.03;;;27.83;;
15454;SDS011;21057;51.024;7.540;2023-01-05T04:30:04;30.63;;;28.27;;
15454;SDS011;21057;51.024;7.540;2023-01-05T04:32:32;28.77;;;26.67;;
15454;SDS011;21057;51.024;7.540;2023-01-05T04:34:59;31.43;;;28.90;;
15454;SDS011;21057;51.024;7.540;2023-01-05T04:37:26;31.93;;;29.27;;
15454;SDS011;21057;51.024;7.540;2023-01-05T04:39:54;35.17;;;31.93;;
15454;SDS011;21057;51.024;7.540;2023-01-05T04:42:21;36.07;;;33.40;;
15454;SDS011;21057;51.024;7.540;2023-01-05T04:44:49;35.00;;;32.40;;
15454;SDS011;21057;51.024;7.540;2023-01-05T04:47:16;36.40;;;33.20;;
15454;SDS011;21057;51.024;7.540;2023-01-05T04:49:42;37.17;;;33.60;;
15454;SDS011;21057;51.024;7.540;2023-01-05T04:52:09;34.03;;;30.30;;
15454;SDS011;21057;51.024;7.540;2023-01-05T04:54:36;37.93;;;34.83;;
15454;SDS011;21057;51.024;7.540;2023-01-05T04:57:04;38.30;;;34.83;;
15454;SDS011;21057;51.024;7.540;2023-01-05T04:59:31;39.57;;;35.70;;
15454;SDS011;21057;51.024;7.540;2023-01-05T05:01:58;38.13;;;35.23;;
15454;SDS011;21057;51.024;7.540;2023-01-05T05:04:24;36.37;;;33.50;;
15454;SDS011;21057;51.024;7.540;2023-01-05T05:06:51;38.50;;;35.07;;
15454;SDS011;21057;51.024;7.540;2023-01-05T05:09:18;37.57;;;34.40;;
15454;SDS011;21057;51.024;7.540;2023-01-05T05:11:45;38.13;;;35.27;;
15454;SDS011;21057;51.024;7.540;2023-01-05T05:14:13;37.67;;;34.87;;
15454;SDS011;21057;51.024;7.540;2023-01-05T05:16:40;41.73;;;37.67;;
15454;SDS011;21057;51.024;7.540;2023-01-05T05:19:07;37.00;;;34.77;;
15454;SDS011;21057;51.024;7.540;2023-01-05T05:21:35;36.20;;;33.70;;
15454;SDS011;21057;51.024;7.540;2023-01-05T05:24:02;37.10;;;33.90;;
15454;SDS011;21057;51.024;7.540;2023-01-05T05:26:29;37.70;;;35.13;;
15454;SDS011;21057;51.024;7.540;2023-01-05T05:28:56;37.60;;;35.03;;
15454;SDS011;21057;51.024;7.540;2023-01-05T05:31:24;41.60;;;37.60;;
15454;SDS011;21057;51.024;7.540;2023-01-05T05:33:51;38.83;;;36.30;;
15454;SDS011;21057;51.024;7.540;2023-01-05T05:36:18;40.30;;;36.20;;
15454;SDS011;21057;51.024;7.540;2023-01-05T05:38:46;41.27;;;38.13;;
15454;SDS011;21057;51.024;7.540;2023-01-05T05:41:13;38.43;;;35.50;;
15454;SDS011;21057;51.024;7.540;2023-01-05T05:43:40;40.27;;;37.53;;
15454;SDS011;21057;51.024;7.540;2023-01-05T05:46:07;41.27;;;38.33;;
15454;SDS011;21057;51.024;7.540;2023-01-05T05:48:35;41.67;;;37.73;;
15454;SDS011;21057;51.024;7.540;2023-01-05T05:51:02;38.17;;;35.63;;
15454;SDS011;21057;51.024;7.540;2023-01-05T05:53:29;38.73;;;35.77;;
15454;SDS011;21057;51.024;7.540;2023-01-05T05:55:56;40.13;;;36.33;;
15454;SDS011;21057;51.024;7.540;2023-01-05T05:58:23;40.07;;;36.60;;
15454;SDS011;21057;51.024;7.540;2023-01-05T06:00:50;39.97;;;36.93;;
15454;SDS011;21057;51.024;7.540;2023-01-05T06:03:16;39.63;;;36.70;;
15454;SDS011;21057;51.024;7.540;2023-01-05T06:05:45;40.73;;;37.83;;
15454;SDS011;21057;51.024;7.540;2023-01-05T06:08:11;41.17;;;37.80;;
15454;SDS011;21057;51.024;7.540;2023-01-05T06:10:38;42.43;;;38.33;;
15454;SDS011;21057;51.024;7.540;2023-01-05T06:13:05;40.33;;;37.53;;
15454;SDS011;21057;51.024;7.540;2023-01-05T06:15:32;41.93;;;38.50;;
15454;SDS011;21057;51.024;7.540;2023-01-05T06:17:59;43.40;;;39.23;;
15454;SDS011;21057;51.024;7.540;2023-01-05T06:20:26;44.73;;;41.17;;
15454;SDS011;21057;51.024;7.540;2023-01-05T06:22:54;42.77;;;38.30;;
15454;SDS011;21057;51.024;7.540;2023-01-05T06:25:21;41.40;;;38.53;;
15454;SDS011;21057;51.024;7.540;2023-01-05T06:27:47;41.90;;;38.50;;
15454;SDS011;21057;51.024;7.540;2023-01-05T06:30:14;40.60;;;37.47;;
15454;SDS011;21057;51.024;7.540;2023-01-05T06:32:41;40.40;;;37.37;;
15454;SDS011;21057;51.024;7.540;2023-01-05T06:35:08;39.57;;;36.77;;
15454;SDS011;21057;51.024;7.540;2023-01-05T06:37:35;41.43;;;37.97;;
15454;SDS011;21057;51.024;7.540;2023-01-05T06:40:04;40.50;;;37.17;;
15454;SDS011;21057;51.024;7.540;2023-01-05T06:42:33;40.40;;;37.90;;
15454;SDS011;21057;51.024;7.540;2023-01-05T06:45:00;39.07;;;35.87;;
15454;SDS011;21057;51.024;7.540;2023-01-05T06:47:27;40.40;;;36.77;;
15454;SDS011;21057;51.024;7.540;2023-01-05T06:49:54;41.77;;;38.27;;
15454;SDS011;21057;51.024;7.540;2023-01-05T06:52:21;41.23;;;38.07;;
15454;SDS011;21057;51.024;7.540;2023-01-05T06:54:47;42.50;;;38.30;;
15454;SDS011;21057;51.024;7.540;2023-01-05T06:57:16;41.20;;;38.07;;
15454;SDS011;21057;51.024;7.540;2023-01-05T06:59:43;40.73;;;37.73;;
15454;SDS011;21057;51.024;7.540;2023-01-05T07:02:12;41.43;;;38.10;;
15454;SDS011;21057;51.024;7.540;2023-01-05T07:04:39;41.27;;;38.07;;
15454;SDS011;21057;51.024;7.540;2023-01-05T07:07:07;39.73;;;35.97;;
15454;SDS011;21057;51.024;7.540;2023-01-05T07:09:35;38.63;;;35.50;;
15454;SDS011;21057;51.024;7.540;2023-01-05T07:12:01;44.23;;;40.20;;
15454;SDS011;21057;51.024;7.540;2023-01-05T07:14:30;43.70;;;40.40;;
15454;SDS011;21057;51.024;7.540;2023-01-05T07:16:57;44.17;;;40.10;;
15454;SDS011;21057;51.024;7.540;2023-01-05T07:19:24;40.20;;;37.17;;
15454;SDS011;21057;51.024;7.540;2023-01-05T07:21:51;41.90;;;38.33;;
15454;SDS011;21057;51.024;7.540;2023-01-05T07:24:18;42.73;;;39.10;;
15454;SDS011;21057;51.024;7.540;2023-01-05T07:26:44;40.67;;;37.33;;
15454;SDS011;21057;51.024;7.540;2023-01-05T07:29:11;36.93;;;34.37;;
15454;SDS011;21057;51.024;7.540;2023-01-05T07:31:39;40.30;;;37.00;;
15454;SDS011;21057;51.024;7.540;2023-01-05T07:34:07;44.20;;;39.60;;
15454;SDS011;21057;51.024;7.540;2023-01-05T07:36:34;43.70;;;40.47;;
15454;SDS011;21057;51.024;7.540;2023-01-05T07:39:00;46.03;;;42.47;;
15454;SDS011;21057;51.024;7.540;2023-01-05T07:41:29;45.13;;;40.83;;
15454;SDS011;21057;51.024;7.540;2023-01-05T07:43:56;43.13;;;39.30;;
15454;SDS011;21057;51.024;7.540;2023-01-05T07:49:17;42.47;;;37.90;;
15454;SDS011;21057;51.024;7.540;2023-01-05T07:51:44;41.23;;;37.47;;
15454;SDS011;21057;51.024;7.540;2023-01-05T07:54:11;41.07;;;38.20;;
15454;SDS011;21057;51.024;7.540;2023-01-05T07:56:38;41.63;;;37.93;;
15454;SDS011;21057;51.024;7.540;2023-01-05T07:59:05;40.07;;;37.17;;
15454;SDS011;21057;51.024;7.540;2023-01-05T08:01:32;39.53;;;36.03;;
15454;SDS011;21057;51.024;7.540;2023-01-05T08:04:00;40.87;;;37.13;;
15454;SDS011;21057;51.024;7.540;2023-01-05T08:06:27;39.17;;;35.77;;
15454;SDS011;21057;51.024;7.540;2023-01-05T08:08:54;40.53;;;37.20;;
15454;SDS011;21057;51.024;7.540;2023-01-05T08:11:21;38.87;;;34.40;;
15454;SDS011;21057;51.024;7.540;2023-01-05T08:13:48;49.03;;;37.33;;
15454;SDS011;21057;51.024;7.540;2023-01-05T08:16:28;38.90;;;35.40;;
15454;SDS011;21057;51.024;7.540;2023-01-05T08:18:55;38.27;;;35.13;;
15454;SDS011;21057;51.024;7.540;2023-01-05T08:21:24;38.43;;;35.13;;
15454;SDS011;21057;51.024;7.540;2023-01-05T08:23:51;40.57;;;37.00;;
15454;SDS011;21057;51.024;7.540;2023-01-05T08:26:19;39.20;;;36.07;;
15454;SDS011;21057;51.024;7.540;2023-01-05T08:28:47;41.60;;;37.93;;
15454;SDS011;21057;51.024;7.540;2023-01-05T08:31:18;39.57;;;36.17;;
15454;SDS011;21057;51.024;7.540;2023-01-05T08:33:50;40.10;;;37.00;;
15454;SDS011;21057;51.024;7.540;2023-01-05T08:36:19;38.27;;;34.53;;
15454;SDS011;21057;51.024;7.540;2023-01-05T08:38:49;40.77;;;37.23;;
15454;SDS011;21057;51.024;7.540;2023-01-05T08:41:17;39.87;;;36.23;;
15454;SDS011;21057;51.024;7.540;2023-01-05T08:43:48;37.13;;;34.23;;
15454;SDS011;21057;51.024;7.540;2023-01-05T08:46:16;46.13;;;35.37;;
15454;SDS011;21057;51.024;7.540;2023-01-05T08:48:43;35.70;;;32.07;;
15454;SDS011;21057;51.024;7.540;2023-01-05T08:51:12;40.10;;;33.17;;
15454;SDS011;21057;51.024;7.540;2023-01-05T08:53:39;35.60;;;32.23;;
15454;SDS011;21057;51.024;7.540;2023-01-05T08:56:08;37.47;;;33.70;;
15454;SDS011;21057;51.024;7.540;2023-01-05T08:58:35;38.10;;;34.70;;
15454;SDS011;21057;51.024;7.540;2023-01-05T09:01:04;37.00;;;33.43;;
15454;SDS011;21057;51.024;7.540;2023-01-05T09:03:31;36.10;;;33.10;;
15454;SDS011;21057;51.024;7.540;2023-01-05T09:05:58;37.87;;;33.77;;
15454;SDS011;21057;51.024;7.540;2023-01-05T09:08:27;36.83;;;32.93;;
15454;SDS011;21057;51.024;7.540;2023-01-05T09:10:54;39.00;;;34.50;;
15454;SDS011;21057;51.024;7.540;2023-01-05T09:13:23;37.43;;;33.87;;
15454;SDS011;21057;51.024;7.540;2023-01-05T09:15:49;39.07;;;35.63;;
15454;SDS011;21057;51.024;7.540;2023-01-05T09:18:16;36.83;;;33.67;;
15454;SDS011;21057;51.024;7.540;2023-01-05T09:20:43;38.13;;;34.87;;
15454;SDS011;21057;51.024;7.540;2023-01-05T09:23:12;40.47;;;33.47;;
15454;SDS011;21057;51.024;7.540;2023-01-05T09:25:39;35.70;;;32.77;;
15454;SDS011;21057;51.024;7.540;2023-01-05T09:28:06;38.13;;;34.03;;
15454;SDS011;21057;51.024;7.540;2023-01-05T09:30:34;40.07;;;36.13;;
15454;SDS011;21057;51.024;7.540;2023-01-05T09:33:02;39.90;;;36.70;;
15454;SDS011;21057;51.024;7.540;2023-01-05T09:35:29;38.07;;;34.23;;
15454;SDS011;21057;51.024;7.540;2023-01-05T09:37:55;39.90;;;35.70;;
15454;SDS011;21057;51.024;7.540;2023-01-05T09:40:22;38.80;;;34.20;;
15454;SDS011;21057;51.024;7.540;2023-01-05T09:42:50;37.37;;;34.03;;
15454;SDS011;21057;51.024;7.540;2023-01-05T09:45:21;38.67;;;35.50;;
15454;SDS011;21057;51.024;7.540;2023-01-05T09:47:54;36.03;;;32.80;;
15454;SDS011;21057;51.024;7.540;2023-01-05T09:50:22;36.67;;;33.63;;
15454;SDS011;21057;51.024;7.540;2023-01-05T09:52:52;38.80;;;35.80;;
15454;SDS011;21057;51.024;7.540;2023-01-05T09:55:22;39.13;;;35.33;;
15454;SDS011;21057;51.024;7.540;2023-01-05T09:57:54;37.03;;;34.30;;
15454;SDS011;21057;51.024;7.540;2023-01-05T10:00:23;40.20;;;33.47;;
15454;SDS011;21057;51.024;7.540;2023-01-05T10:02:52;38.13;;;34.70;;
15454;SDS011;21057;51.024;7.540;2023-01-05T10:05:24;36.13;;;33.17;;
15454;SDS011;21057;51.024;7.540;2023-01-05T10:07:52;35.70;;;32.47;;
15454;SDS011;21057;51.024;7.540;2023-01-05T10:10:26;35.30;;;31.63;;
15454;SDS011;21057;51.024;7.540;2023-01-05T10:13:06;38.77;;;32.73;;
15454;SDS011;21057;51.024;7.540;2023-01-05T10:15:39;35.50;;;32.10;;
15454;SDS011;21057;51.024;7.540;2023-01-05T10:18:12;38.00;;;34.17;;
15454;SDS011;21057;51.024;7.540;2023-01-05T10:20:50;36.90;;;33.37;;
15454;SDS011;21057;51.024;7.540;2023-01-05T10:23:29;37.83;;;34.07;;
15454;SDS011;21057;51.024;7.540;2023-01-05T10:26:12;37.87;;;34.13;;
15454;SDS011;21057;51.024;7.540;2023-01-05T10:28:47;35.43;;;32.10;;
15454;SDS011;21057;51.024;7.540;2023-01-05T10:31:21;35.10;;;32.60;;
15454;SDS011;21057;51.024;7.540;2023-01-05T10:33:50;36.90;;;33.20;;
15454;SDS011;21057;51.024;7.540;2023-01-05T10:36:23;35.03;;;31.60;;
15454;SDS011;21057;51.024;7.540;2023-01-05T10:39:00;36.30;;;31.90;;
15454;SDS011;21057;51.024;7.540;2023-01-05T10:41:37;38.20;;;32.80;;
15454;SDS011;21057;51.024;7.540;2023-01-05T10:47:17;40.17;;;31.23;;
15454;SDS011;21057;51.024;7.540;2023-01-05T10:49:47;37.13;;;33.67;;
15454;SDS011;21057;51.024;7.540;2023-01-05T10:52:14;34.43;;;31.37;;
15454;SDS011;21057;51.024;7.540;2023-01-05T10:54:44;33.60;;;30.83;;
15454;SDS011;21057;51.024;7.540;2023-01-05T10:57:36;31.83;;;28.67;;
15454;SDS011;21057;51.024;7.540;2023-01-05T11:00:10;30.23;;;27.37;;
15454;SDS011;21057;51.024;7.540;2023-01-05T11:02:40;30.77;;;28.27;;
15454;SDS011;21057;51.024;7.540;2023-01-05T11:05:18;31.87;;;28.70;;
15454;SDS011;21057;51.024;7.540;2023-01-05T11:07:51;34.80;;;30.50;;
15454;SDS011;21057;51.024;7.540;2023-01-05T11:10:21;31.67;;;29.30;;
15454;SDS011;21057;51.024;7.540;2023-01-05T11:12:50;31.10;;;28.37;;
15454;SDS011;21057;51.024;7.540;2023-01-05T11:15:20;32.87;;;29.83;;
15454;SDS011;21057;51.024;7.540;2023-01-05T11:17:47;34.33;;;30.87;;
15454;SDS011;21057;51.024;7.540;2023-01-05T11:20:14;31.63;;;28.83;;
15454;SDS011;21057;51.024;7.540;2023-01-05T11:22:44;35.00;;;31.43;;
15454;SDS011;21057;51.024;7.540;2023-01-05T11:25:13;34.23;;;31.27;;
15454;SDS011;21057;51.024;7.540;2023-01-05T11:28:03;36.23;;;32.77;;
15454;SDS011;21057;51.024;7.540;2023-01-05T11:30:43;35.43;;;32.07;;
15454;SDS011;21057;51.024;7.540;2023-01-05T11:33:23;34.43;;;30.90;;
15454;SDS011;21057;51.024;7.540;2023-01-05T11:35:52;35.83;;;32.83;;
15454;SDS011;21057;51.024;7.540;2023-01-05T11:38:23;35.13;;;32.07;;
15454;SDS011;21057;51.024;7.540;2023-01-05T11:40:52;31.40;;;28.10;;
15454;SDS011;21057;51.024;7.540;2023-01-05T11:43:20;32.80;;;29.37;;
15454;SDS011;21057;51.024;7.540;2023-01-05T11:45:52;31.30;;;28.80;;
15454;SDS011;21057;51.024;7.540;2023-01-05T11:48:22;31.20;;;28.67;;
15454;SDS011;21057;51.024;7.540;2023-01-05T11:50:52;31.30;;;28.93;;
15454;SDS011;21057;51.024;7.540;2023-01-05T11:53:23;33.30;;;29.93;;
15454;SDS011;21057;51.024;7.540;2023-01-05T11:56:01;32.30;;;29.90;;
15454;SDS011;21057;51.024;7.540;2023-01-05T11:58:31;33.03;;;29.87;;
15454;SDS011;21057;51.024;7.540;2023-01-05T12:01:10;33.47;;;30.07;;
15454;SDS011;21057;51.024;7.540;2023-01-05T12:04:01;33.03;;;30.10;;
15454;SDS011;21057;51.024;7.540;2023-01-05T12:06:39;32.10;;;29.23;;
15454;SDS011;21057;51.024;7.540;2023-01-05T12:09:29;31.47;;;29.13;;
15454;SDS011;21057;51.024;7.540;2023-01-05T12:12:01;29.90;;;27.57;;
15454;SDS011;21057;51.024;7.540;2023-01-05T12:14:43;31.07;;;28.50;;
15454;SDS011;21057;51.024;7.540;2023-01-05T12:17:21;31.83;;;28.63;;
15454;SDS011;21057;51.024;7.540;2023-01-05T12:19:58;33.47;;;30.03;;
15454;SDS011;21057;51.024;7.540;2023-01-05T12:25:54;33.13;;;29.77;;
15454;SDS011;21057;51.024;7.540;2023-01-05T12:28:39;31.10;;;28.77;;
15454;SDS011;21057;51.024;7.540;2023-01-05T12:31:16;32.53;;;29.83;;
15454;SDS011;21057;51.024;7.540;2023-01-05T12:34:00;33.47;;;30.47;;
15454;SDS011;21057;51.024;7.540;2023-01-05T12:36:45;33.90;;;30.43;;
15454;SDS011;21057;51.024;7.540;2023-01-05T12:39:36;31.70;;;29.20;;
15454;SDS011;21057;51.024;7.540;2023-01-05T12:42:20;32.30;;;29.50;;
15454;SDS011;21057;51.024;7.540;2023-01-05T12:45:00;32.77;;;29.83;;
15454;SDS011;21057;51.024;7.540;2023-01-05T12:47:49;32.53;;;29.77;;
15454;SDS011;21057;51.024;7.540;2023-01-05T12:50:22;32.60;;;29.63;;
15454;SDS011;21057;51.024;7.540;2023-01-05T12:52:57;29.17;;;26.83;;
15454;SDS011;21057;51.024;7.540;2023-01-05T12:55:27;28.83;;;26.57;;
15454;SDS011;21057;51.024;7.540;2023-01-05T12:58:00;31.57;;;28.67;;
15454;SDS011;21057;51.024;7.540;2023-01-05T13:00:34;29.63;;;26.93;;
15454;SDS011;21057;51.024;7.540;2023-01-05T13:03:10;29.67;;;27.57;;
15454;SDS011;21057;51.024;7.540;2023-01-05T13:05:43;31.13;;;28.53;;
15454;SDS011;21057;51.024;7.540;2023-01-05T13:08:17;28.40;;;25.77;;
15454;SDS011;21057;51.024;7.540;2023-01-05T13:10:50;29.33;;;26.50;;
15454;SDS011;21057;51.024;7.540;2023-01-05T13:13:24;28.37;;;26.10;;
15454;SDS011;21057;51.024;7.540;2023-01-05T13:15:55;30.23;;;27.37;;
15454;SDS011;21057;51.024;7.540;2023-01-05T13:18:26;27.10;;;25.37;;
15454;SDS011;21057;51.024;7.540;2023-01-05T13:20:55;27.67;;;25.53;;
15454;SDS011;21057;51.024;7.540;2023-01-05T13:23:26;29.93;;;26.87;;
15454;SDS011;21057;51.024;7.540;2023-01-05T13:25:57;27.33;;;24.87;;
15454;SDS011;21057;51.024;7.540;2023-01-05T13:28:29;33.40;;;24.00;;
15454;SDS011;21057;51.024;7.540;2023-01-05T13:31:09;26.70;;;24.20;;
15454;SDS011;21057;51.024;7.540;2023-01-05T13:34:03;30.47;;;25.17;;
15454;SDS011;21057;51.024;7.540;2023-01-05T13:36:58;26.17;;;23.93;;
15454;SDS011;21057;51.024;7.540;2023-01-05T13:39:43;28.63;;;26.10;;
15454;SDS011;21057;51.024;7.540;2023-01-05T13:42:33;27.30;;;24.53;;
15454;SDS011;21057;51.024;7.540;2023-01-05T13:48:23;27.37;;;25.13;;
15454;SDS011;21057;51.024;7.540;2023-01-05T13:51:17;26.13;;;24.03;;
15454;SDS011;21057;51.024;7.540;2023-01-05T13:54:00;28.63;;;26.33;;
15454;SDS011;21057;51.024;7.540;2023-01-05T13:56:31;29.03;;;26.63;;
15454;SDS011;21057;51.024;7.540;2023-01-05T13:58:59;28.47;;;26.50;;
15454;SDS011;21057;51.024;7.540;2023-01-05T14:01:34;26.93;;;24.93;;
15454;SDS011;21057;51.024;7.540;2023-01-05T14:04:03;24.63;;;22.87;;
15454;SDS011;21057;51.024;7.540;2023-01-05T14:06:42;26.97;;;24.17;;
15454;SDS011;21057;51.024;7.540;2023-01-05T14:09:12;26.13;;;23.87;;
15454;SDS011;21057;51.024;7.540;2023-01-05T14:14:56;27.43;;;24.83;;
15454;SDS011;21057;51.024;7.540;2023-01-05T14:20:28;28.33;;;25.70;;
15454;SDS011;21057;51.024;7.540;2023-01-05T14:22:57;25.63;;;23.70;;
15454;SDS011;21057;51.024;7.540;2023-01-05T14:25:47;26.30;;;24.27;;
15454;SDS011;21057;51.024;7.540;2023-01-05T14:28:18;26.50;;;24.60;;
15454;SDS011;21057;51.024;7.540;2023-01-05T14:30:47;24.53;;;22.80;;
15454;SDS011;21057;51.024;7.540;2023-01-05T14:33:17;26.07;;;23.50;;
15454;SDS011;21057;51.024;7.540;2023-01-05T14:35:44;26.67;;;24.20;;
15454;SDS011;21057;51.024;7.540;2023-01-05T14:38:16;26.07;;;23.97;;
15454;SDS011;21057;51.024;7.540;2023-01-05T14:40:46;26.87;;;25.00;;
15454;SDS011;21057;51.024;7.540;2023-01-05T14:43:21;28.03;;;25.20;;
15454;SDS011;21057;51.024;7.540;2023-01-05T14:45:59;28.20;;;25.77;;
15454;SDS011;21057;51.024;7.540;2023-01-05T14:48:30;27.20;;;24.90;;
15454;SDS011;21057;51.024;7.540;2023-01-05T14:51:07;25.87;;;23.73;;
15454;SDS011;21057;51.024;7.540;2023-01-05T14:53:48;27.67;;;25.83;;
15454;SDS011;21057;51.024;7.540;2023-01-05T14:56:17;26.83;;;24.67;;
15454;SDS011;21057;51.024;7.540;2023-01-05T15:01:47;28.60;;;26.00;;
15454;SDS011;21057;51.024;7.540;2023-01-05T15:04:18;27.40;;;25.27;;
15454;SDS011;21057;51.024;7.540;2023-01-05T15:07:02;27.60;;;25.30;;